Latest Weather Observations for Port Augusta

IDS60801

Issued at 7:31 pm CST Tuesday 24 May 2016 (issued every 30 minutes, with the page automatically refreshed every 10 minutes)

About weather observations | Map of weather stations | Latest weather observations for SA | Other Formats
Station Details ID: 018201 Name: PORT AUGUSTA AERO Lat: -32.51 Lon: 137.72 Height: 13.97 m
Data from the previous 72 hours. | See also: Recent months at Port Augusta
Date/Time
CST
Temp
°C
App
Temp
°C
Dew
Point
Rel
Hum
%
Delta-T
°C
Wind Press
QNH
hPa
Press
MSL
hPa
Rain
since 9 am
mm
Dir
 
Spd
km/h
Gust
km/h
Spd
kts
Gust
kts
24/07:30pm 13.6 9.3 -1.9 34 6.2 N 11 13 6 7 1017.3 1017.2 0.0
24/07:00pm 14.2 10.6 -1.8 33 6.4 N 7 9 4 5 1017.3 1017.2 0.0
24/06:30pm 14.5 10.2 -2.0 32 6.6 N 11 11 6 6 1017.5 1017.4 0.0
24/06:00pm 16.0 11.3 -2.0 29 7.3 N 13 17 7 9 1017.6 1017.5 0.0
24/05:30pm 17.9 11.8 -2.4 25 8.4 N 20 24 11 13 1017.5 1017.4 0.0
24/05:00pm 19.2 11.9 -3.0 22 9.2 N 26 33 14 18 1017.4 1017.3 0.0
24/04:30pm 20.2 12.0 -4.1 19 9.9 N 30 39 16 21 1017.5 1017.4 0.0
24/04:00pm 21.3 13.2 -3.2 19 10.3 N 30 39 16 21 1017.6 1017.5 0.0
24/03:30pm 21.5 13.0 -3.1 19 10.3 N 32 39 17 21 1017.8 1017.8 0.0
24/03:00pm 21.9 13.4 -3.5 18 10.6 N 32 43 17 23 1018.0 1018.0 0.0
24/02:30pm 21.9 13.4 -3.5 18 10.6 N 32 44 17 24 1018.4 1018.4 0.0
24/02:00pm 22.3 14.2 -0.4 22 10.1 N 32 46 17 25 1018.7 1018.7 0.0
24/01:30pm 21.1 12.7 -1.4 22 9.7 N 33 44 18 24 1019.2 1019.2 0.0
24/01:00pm 21.1 13.4 -0.2 24 9.5 NNW 30 41 16 22 1019.9 1019.9 0.0
24/12:30pm 20.8 13.7 1.1 27 8.9 N 28 35 15 19 1020.5 1020.5 0.0
24/12:00pm 20.5 13.2 2.3 30 8.4 N 30 39 16 21 1021.0 1021.0 0.0
24/11:30am 20.0 12.8 2.8 32 8.0 N 30 37 16 20 1021.6 1021.6 0.0
24/11:00am 19.1 12.4 3.7 36 7.3 N 28 35 15 19 1022.3 1022.3 0.0
24/10:30am 16.7 12.0 5.0 46 5.5 N 19 24 10 13 1023.0 1023.0 0.0
24/10:00am 14.6 11.3 6.4 58 4.0 N 13 17 7 9 1023.4 1023.4 0.0
24/09:30am 13.4 10.8 6.0 61 3.5 NW 9 13 5 7 1023.7 1023.7 0.0
24/09:00am 12.1 9.9 6.2 67 2.8 W 7 9 4 5 1023.6 1023.6 0.2
24/08:30am 8.2 5.9 5.8 85 1.1 WNW 7 9 4 5 1023.4 1023.4 0.2
24/08:00am 6.6 3.7 4.9 89 0.7 SW 9 11 5 6 1023.1 1023.1 0.2
24/07:30am 5.7 3.1 4.0 89 0.7 W 7 7 4 4 1022.9 1022.9 0.2
24/07:00am 5.9 3.3 4.1 88 0.8 NNW 7 9 4 5 1022.9 1022.9 0.2
24/06:30am 5.7 3.3 4.2 90 0.6 NNW 6 7 3 4 1022.9 1022.9 0.2
24/06:00am 4.1 -0.3 2.8 91 0.5 N 15 17 8 9 1022.8 1022.8 0.2
24/05:30am 5.5 2.8 3.7 88 0.8 NW 7 9 4 5 1023.0 1023.0 0.2
24/05:00am 5.0 2.5 3.5 90 0.6 WSW 6 7 3 4 1022.9 1022.9 0.2
24/04:30am 6.0 3.0 4.2 88 0.8 WSW 9 9 5 5 1022.9 1022.9 0.2
24/04:00am 5.4 2.3 3.4 87 0.8 W 9 11 5 6 1022.6 1022.6 0.2
24/03:30am 5.4 2.6 3.3 86 0.9 NNW 7 7 4 4 1022.6 1022.6 0.2
24/03:00am 6.7 3.7 4.2 84 1.1 NNW 9 9 5 5 1022.9 1022.9 0.2
24/02:30am 6.3 4.6 4.1 86 0.9 WNW 2 6 1 3 1022.9 1022.9 0.2
24/02:00am 7.4 5.1 4.9 84 1.1 WNW 6 7 3 4 1023.0 1023.0 0.2
24/01:30am 6.8 4.4 4.1 83 1.2 SW 6 7 3 4 1023.2 1023.2 0.2
24/01:00am 7.2 4.3 4.5 83 1.2 WSW 9 9 5 5 1023.5 1023.5 0.2
24/12:30am 7.3 5.0 4.8 84 1.1 W 6 7 3 4 1023.6 1023.6 0.2
24/12:00am 8.1 5.3 5.0 81 1.4 WSW 9 11 5 6 1024.1 1024.1 0.2
 
Date/Time
CST
Temp
°C
App
Temp
°C
Dew
Point
Rel
Hum
%
Delta-T
°C
Wind Press
QNH
hPa
Press
MSL
hPa
Rain
since 9 am
mm
Dir
 
Spd
km/h
Gust
km/h
Spd
kts
Gust
kts
23/11:30pm 8.7 6.4 5.8 82 1.3 W 7 9 4 5 1024.2 1024.2 0.2
23/11:00pm 8.4 6.2 5.2 80 1.4 SW 6 6 3 3 1024.2 1024.2 0.2
23/10:30pm 10.8 8.9 7.7 81 1.5 SE 7 9 4 5 1024.4 1024.4 0.2
23/10:00pm 10.6 8.7 7.7 82 1.4 SE 7 11 4 6 1024.5 1024.5 0.2
23/09:30pm 11.6 8.8 8.5 81 1.5 SE 13 17 7 9 1024.2 1024.2 0.2
23/09:00pm 11.0 9.0 6.2 72 2.2 SSE 6 7 3 4 1024.4 1024.4 0.2
23/08:30pm 11.4 9.2 5.1 65 2.9 ENE 6 9 3 5 1024.3 1024.3 0.2
23/08:00pm 12.2 9.9 4.9 61 3.3 S 6 7 3 4 1024.5 1024.5 0.2
23/07:30pm 13.5 11.2 5.9 60 3.6 SE 7 11 4 6 1024.4 1024.4 0.2
23/07:00pm 15.2 11.8 6.0 54 4.4 SE 13 17 7 9 1024.3 1024.3 0.2
23/06:30pm 15.6 12.2 5.8 52 4.7 SE 13 17 7 9 1024.2 1024.2 0.2
23/06:00pm 15.7 12.2 5.6 51 4.8 SE 13 17 7 9 1024.1 1024.1 0.2
23/05:30pm 16.4 13.4 6.2 51 4.9 SE 11 15 6 8 1023.6 1023.6 0.2
23/05:00pm 17.8 14.7 5.7 45 5.9 SE 11 17 6 9 1023.5 1023.5 0.2
23/04:30pm 18.5 14.7 6.0 44 6.1 SE 15 19 8 10 1023.4 1023.4 0.2
23/04:00pm 19.0 15.5 7.1 46 6.0 SE 15 20 8 11 1023.3 1023.3 0.2
23/03:30pm 19.5 16.2 6.6 43 6.4 ESE 13 19 7 10 1023.4 1023.4 0.2
23/03:00pm 19.2 16.8 7.0 45 6.1 SE 9 15 5 8 1023.3 1023.3 0.2
23/02:30pm 19.5 16.4 7.3 45 6.2 ESE 13 19 7 10 1023.3 1023.3 0.2
23/02:00pm 19.5 17.4 8.2 48 5.8 ESE 9 17 5 9 1023.6 1023.6 0.2
23/01:30pm 19.1 17.4 8.4 50 5.5 SSE 7 13 4 7 1023.9 1023.9 0.2
23/01:00pm 18.9 16.1 8.6 51 5.3 ESE 13 19 7 10 1024.2 1024.2 0.2
23/12:30pm 18.5 15.7 8.7 53 5.1 ESE 13 20 7 11 1024.4 1024.4 0.2
23/12:00pm 18.0 15.1 8.3 53 5.0 SE 13 20 7 11 1024.8 1024.8 0.2
23/11:30am 18.5 16.6 9.0 54 4.9 ENE 9 15 5 8 1025.3 1025.3 0.2
23/11:00am 17.4 15.9 8.5 56 4.6 S 6 11 3 6 1025.6 1025.6 0.0
23/10:30am 16.9 15.8 8.6 58 4.2 SW 4 11 2 6 1025.7 1025.7 0.0
23/10:00am 16.5 13.8 9.0 61 3.9 N 13 15 7 8 1026.0 1026.0 0.0
23/09:30am 15.8 15.0 8.3 61 3.8 ENE 2 7 1 4 1025.8 1025.8 0.0
23/09:00am 14.7 13.2 9.1 69 2.8 E 7 9 4 5 1025.3 1025.3 0.0
23/08:30am 13.1 11.6 8.6 74 2.2 E 6 9 3 5 1024.8 1024.8 0.0
23/08:00am 10.9 9.1 7.8 81 1.5 SSE 7 9 4 5 1024.5 1024.5 0.0
23/07:30am 8.2 7.4 6.3 88 0.9 CALM 0 0 0 0 1024.2 1024.2 0.0
23/07:00am 7.9 5.2 5.7 86 1.0 SW 9 13 5 7 1023.8 1023.8 0.0
23/06:30am 9.2 6.8 6.8 85 1.1 SW 9 13 5 7 1023.4 1023.4 0.0
23/06:00am 10.5 9.5 7.2 80 1.6 WSW 2 9 1 5 1023.3 1023.3 0.0
23/05:30am 11.7 10.3 7.4 75 2.1 WSW 4 17 2 9 1022.9 1022.9 0.0
23/05:00am 11.1 10.5 7.2 77 1.9 CALM 0 6 0 3 1022.6 1022.6 0.0
23/04:30am 12.1 7.9 7.6 74 2.2 SSW 19 24 10 13 1022.4 1022.4 0.0
23/04:00am 11.8 9.2 7.9 77 1.9 SW 11 22 6 12 1022.3 1022.3 0.0
23/03:30am 11.2 8.5 7.5 78 1.8 WSW 11 15 6 8 1022.4 1022.4 0.0
23/03:00am 11.2 7.8 7.5 78 1.8 SW 15 20 8 11 1022.4 1022.4 0.0
23/02:30am 12.7 8.1 8.0 73 2.3 WSW 22 32 12 17 1022.1 1022.1 0.0
23/02:00am 12.8 8.5 7.9 72 2.4 WSW 20 28 11 15 1021.9 1021.9 0.0
23/01:30am 13.0 8.3 7.9 71 2.5 WSW 22 37 12 20 1022.0 1022.0 0.0
23/01:00am 13.3 8.2 7.7 69 2.8 WSW 24 33 13 18 1022.0 1022.0 0.0
23/12:30am 13.5 8.7 7.3 66 3.0 WSW 22 30 12 16 1021.8 1021.8 0.0
23/12:00am 13.6 9.8 7.4 66 3.0 WSW 17 28 9 15 1021.6 1021.6 0.0
 
Date/Time
CST
Temp
°C
App
Temp
°C
Dew
Point
Rel
Hum
%
Delta-T
°C
Wind Press
QNH
hPa
Press
MSL
hPa
Rain
since 9 am
mm
Dir
 
Spd
km/h
Gust
km/h
Spd
kts
Gust
kts
22/11:30pm 12.0 10.0 6.9 71 2.4 WNW 7 13 4 7 1021.5 1021.5 0.0
22/11:00pm 13.6 10.1 7.2 65 3.1 W 15 19 8 10 1021.1 1021.1 0.0
22/10:30pm 13.9 9.4 7.0 63 3.3 W 20 24 11 13 1020.8 1020.8 0.0
22/10:00pm 14.3 10.4 7.1 62 3.5 W 17 20 9 11 1020.7 1020.7 0.0
22/09:30pm 14.8 11.3 7.1 60 3.8 WSW 15 17 8 9 1020.3 1020.3 0.0
22/09:00pm 16.1 10.9 7.1 55 4.4 WSW 24 32 13 17 1019.7 1019.7 0.0
22/08:30pm 16.5 10.8 6.9 53 4.7 SW 26 35 14 19 1018.9 1018.9 0.0
22/08:00pm 17.5 12.5 6.4 48 5.5 WSW 22 28 12 15 1018.1 1018.1 0.0
22/07:30pm 18.7 11.6 6.2 44 6.2 WSW 33 46 18 25 1017.2 1017.1 0.0
22/07:00pm 19.7 13.3 8.4 48 5.9 WSW 32 43 17 23 1016.4 1016.3 0.0
22/06:30pm 20.7 15.2 9.0 47 6.2 WSW 28 39 15 21 1015.4 1015.3 0.0
22/06:00pm 21.5 17.8 10.3 49 6.1 W 20 32 11 17 1014.4 1014.3 0.0
22/05:30pm 21.9 18.5 11.3 51 5.9 WNW 20 26 11 14 1013.7 1013.6 0.0
22/05:00pm 22.1 18.3 9.9 46 6.6 NW 20 28 11 15 1012.9 1012.8 0.0
22/04:30pm 23.1 18.2 9.8 43 7.2 NW 26 35 14 19 1012.1 1012.0 0.0
22/04:00pm 23.1 17.9 10.2 44 7.1 NNW 28 32 15 17 1011.9 1011.8 0.0
22/03:30pm 22.4 19.3 11.5 50 6.1 NNW 19 24 10 13 1011.6 1011.5 0.0
22/03:00pm 21.7 19.4 11.7 53 5.6 NNW 15 20 8 11 1011.2 1011.1 0.0
22/02:30pm 21.4 18.0 11.1 52 5.7 N 20 24 11 13 1011.1 1011.0 0.0
22/02:00pm 21.0 16.7 10.8 52 5.6 NNW 24 33 13 18 1011.3 1011.2 0.0
22/01:30pm 19.3 15.4 12.1 63 4.0 NNW 24 35 13 19 1011.5 1011.4 0.0
22/01:20pm 19.9 15.1 11.7 59 4.5 NW 28 43 15 23 1011.7 1011.6 0.0
22/01:00pm 21.1 17.4 9.4 47 6.2 NNW 19 22 10 12 1011.3 1011.2 0.0
22/12:30pm 22.9 16.4 6.6 35 8.4 NNW 30 37 16 20 1011.6 1011.5 0.0
22/12:00pm 23.6 17.5 6.4 33 8.8 NNW 28 37 15 20 1011.9 1011.8 0.0
22/11:30am 23.0 16.8 6.3 34 8.5 NNW 28 39 15 21 1012.1 1012.0 0.0
22/11:05am 22.9 14.9 5.8 33 8.6 NNW 37 56 20 30 1012.3 1012.2 0.0
22/11:00am 22.9 15.9 6.2 34 8.5 NNW 32 43 17 23 1011.7 1011.6 0.0
22/10:30am 21.2 15.0 6.3 38 7.5 NNW 28 41 15 22 1011.0 1010.9 0.0
22/10:00am 20.1 13.8 5.7 39 7.1 NNW 28 37 15 20 1011.6 1011.5 0.0
22/09:30am 20.2 13.5 5.4 38 7.3 NNW 30 41 16 22 1011.4 1011.3 0.0
22/09:00am 19.7 13.8 5.7 40 6.9 NNW 26 33 14 18 1011.7 1011.6 0.0
22/08:30am 19.1 13.2 5.6 41 6.6 NNW 26 41 14 22 1011.5 1011.4 0.0
22/08:00am 17.6 12.5 5.9 46 5.7 NW 22 28 12 15 1011.2 1011.1 0.0
22/07:30am 16.8 11.3 5.7 48 5.4 W 24 30 13 16 1011.4 1011.3 0.0
22/07:00am 15.7 12.2 5.3 50 4.9 WNW 13 17 7 9 1010.8 1010.7 0.0
22/06:30am 16.7 12.0 5.3 47 5.5 NW 19 24 10 13 1011.4 1011.3 0.0
22/06:00am 16.2 11.0 5.5 49 5.1 NNW 22 30 12 16 1011.7 1011.6 0.0
22/05:30am 15.5 9.9 5.4 51 4.8 NNW 24 30 13 16 1011.9 1011.8 0.0
22/05:00am 15.3 10.1 5.5 52 4.7 NNW 22 28 12 15 1012.0 1011.9 0.0
22/04:30am 15.5 10.3 5.7 52 4.7 NNW 22 26 12 14 1012.0 1011.9 0.0
22/04:00am 15.1 10.4 5.9 54 4.4 NW 20 24 11 13 1012.4 1012.3 0.0
22/03:30am 14.8 11.1 6.1 56 4.2 NW 15 20 8 11 1012.5 1012.4 0.0
22/03:00am 15.6 10.6 6.3 54 4.5 N 22 30 12 16 1012.7 1012.6 0.0
22/02:30am 16.0 11.6 6.7 54 4.6 N 19 26 10 14 1013.0 1012.9 0.0
22/02:00am 15.4 12.2 6.9 57 4.2 NNW 13 19 7 10 1013.4 1013.3 0.0
22/01:30am 15.5 11.0 6.8 56 4.3 N 20 24 11 13 1013.6 1013.5 0.0
22/01:00am 16.1 11.6 6.8 54 4.6 N 20 26 11 14 1013.8 1013.7 0.0
22/12:30am 16.5 12.2 6.9 53 4.7 NNW 19 24 10 13 1014.6 1014.5 0.0
22/12:00am 16.0 11.7 7.0 55 4.4 N 19 22 10 12 1014.5 1014.4 0.0
 
Date/Time
CST
Temp
°C
App
Temp
°C
Dew
Point
Rel
Hum
%
Delta-T
°C
Wind Press
QNH
hPa
Press
MSL
hPa
Rain
since 9 am
mm
Dir
 
Spd
km/h
Gust
km/h
Spd
kts
Gust
kts
21/11:30pm 16.1 11.8 7.1 55 4.5 N 19 22 10 12 1014.7 1014.6 0.0
21/11:00pm 14.1 10.5 6.9 62 3.5 N 15 19 8 10 1014.8 1014.7 0.0
21/10:30pm 13.8 10.9 6.4 61 3.5 NNW 11 13 6 7 1015.1 1015.0 0.0
21/10:00pm 13.5 10.9 6.1 61 3.5 NW 9 11 5 6 1015.4 1015.3 0.0
21/09:30pm 14.1 11.5 6.2 59 3.8 WNW 9 11 5 6 1015.4 1015.3 0.0
21/09:00pm 14.8 12.6 6.4 57 4.1 N 7 9 4 5 1015.4 1015.3 0.0
21/08:30pm 15.3 12.7 6.3 55 4.4 N 9 13 5 7 1015.3 1015.2 0.0
21/08:00pm 16.5 13.2 6.6 52 4.9 N 13 15 7 8 1015.1 1015.0 0.0

Other Formats:

Comma delimited format used in spreadsheet applications
http://www.bom.gov.au/fwo/IDS60801/IDS60801.95666.axf

JavaScript Object Notation format (JSON) in row-major order
http://www.bom.gov.au/fwo/IDS60801/IDS60801.95666.json